sensor_id;sensor_type;location;lat;lon;timestamp;P1;durP1;ratioP1;P2;durP2;ratioP2
64395;SDS011;50717;53.360;6.290;2022-08-14T00:02:24;8.18;;;6.22;;
64395;SDS011;50717;53.360;6.290;2022-08-14T00:04:51;7.45;;;5.85;;
64395;SDS011;50717;53.360;6.290;2022-08-14T00:07:16;7.60;;;5.97;;
64395;SDS011;50717;53.360;6.290;2022-08-14T00:09:42;8.60;;;6.25;;
64395;SDS011;50717;53.360;6.290;2022-08-14T00:12:08;10.20;;;6.78;;
64395;SDS011;50717;53.360;6.290;2022-08-14T00:14:35;10.55;;;6.22;;
64395;SDS011;50717;53.360;6.290;2022-08-14T00:17:02;8.55;;;6.55;;
64395;SDS011;50717;53.360;6.290;2022-08-14T00:19:29;9.18;;;6.80;;
64395;SDS011;50717;53.360;6.290;2022-08-14T00:21:55;9.60;;;6.60;;
64395;SDS011;50717;53.360;6.290;2022-08-14T00:24:21;10.40;;;6.72;;
64395;SDS011;50717;53.360;6.290;2022-08-14T00:26:47;8.63;;;6.93;;
64395;SDS011;50717;53.360;6.290;2022-08-14T00:29:13;10.73;;;7.20;;
64395;SDS011;50717;53.360;6.290;2022-08-14T00:31:39;8.98;;;6.88;;
64395;SDS011;50717;53.360;6.290;2022-08-14T00:34:06;7.72;;;6.75;;
64395;SDS011;50717;53.360;6.290;2022-08-14T00:36:32;7.20;;;6.50;;
64395;SDS011;50717;53.360;6.290;2022-08-14T00:38:58;9.35;;;6.82;;
64395;SDS011;50717;53.360;6.290;2022-08-14T00:41:28;8.75;;;6.93;;
64395;SDS011;50717;53.360;6.290;2022-08-14T00:43:55;10.05;;;6.40;;
64395;SDS011;50717;53.360;6.290;2022-08-14T00:46:21;12.80;;;6.88;;
64395;SDS011;50717;53.360;6.290;2022-08-14T00:48:47;10.35;;;7.22;;
64395;SDS011;50717;53.360;6.290;2022-08-14T00:51:13;7.90;;;6.85;;
64395;SDS011;50717;53.360;6.290;2022-08-14T00:53:39;9.55;;;7.43;;
64395;SDS011;50717;53.360;6.290;2022-08-14T00:56:05;9.20;;;6.82;;
64395;SDS011;50717;53.360;6.290;2022-08-14T00:58:32;8.63;;;6.88;;
64395;SDS011;50717;53.360;6.290;2022-08-14T01:01:00;8.85;;;6.80;;
64395;SDS011;50717;53.360;6.290;2022-08-14T01:03:29;8.50;;;7.30;;
64395;SDS011;50717;53.360;6.290;2022-08-14T01:05:56;7.82;;;7.00;;
64395;SDS011;50717;53.360;6.290;2022-08-14T01:08:27;10.80;;;7.90;;
64395;SDS011;50717;53.360;6.290;2022-08-14T01:10:54;8.98;;;7.53;;
64395;SDS011;50717;53.360;6.290;2022-08-14T01:13:28;9.02;;;7.40;;
64395;SDS011;50717;53.360;6.290;2022-08-14T01:16:01;9.77;;;7.60;;
64395;SDS011;50717;53.360;6.290;2022-08-14T01:18:30;9.23;;;7.85;;
64395;SDS011;50717;53.360;6.290;2022-08-14T01:21:20;8.80;;;7.32;;
64395;SDS011;50717;53.360;6.290;2022-08-14T01:23:55;9.07;;;7.57;;
64395;SDS011;50717;53.360;6.290;2022-08-14T01:26:22;10.23;;;7.95;;
64395;SDS011;50717;53.360;6.290;2022-08-14T01:28:50;11.13;;;7.95;;
64395;SDS011;50717;53.360;6.290;2022-08-14T01:31:20;8.77;;;7.85;;
64395;SDS011;50717;53.360;6.290;2022-08-14T01:33:49;13.65;;;8.00;;
64395;SDS011;50717;53.360;6.290;2022-08-14T01:36:17;11.25;;;8.05;;
64395;SDS011;50717;53.360;6.290;2022-08-14T01:38:47;9.63;;;8.48;;
64395;SDS011;50717;53.360;6.290;2022-08-14T01:41:16;9.93;;;8.23;;
64395;SDS011;50717;53.360;6.290;2022-08-14T01:46:19;12.27;;;8.55;;
64395;SDS011;50717;53.360;6.290;2022-08-14T01:48:47;10.88;;;9.35;;
64395;SDS011;50717;53.360;6.290;2022-08-14T01:51:15;11.80;;;9.05;;
64395;SDS011;50717;53.360;6.290;2022-08-14T01:53:46;11.43;;;8.80;;
64395;SDS011;50717;53.360;6.290;2022-08-14T01:56:16;10.20;;;9.05;;
64395;SDS011;50717;53.360;6.290;2022-08-14T01:58:46;12.25;;;10.05;;
64395;SDS011;50717;53.360;6.290;2022-08-14T02:01:17;14.85;;;9.35;;
64395;SDS011;50717;53.360;6.290;2022-08-14T02:03:44;13.40;;;10.20;;
64395;SDS011;50717;53.360;6.290;2022-08-14T02:06:11;12.20;;;9.77;;
64395;SDS011;50717;53.360;6.290;2022-08-14T02:08:39;11.15;;;9.73;;
64395;SDS011;50717;53.360;6.290;2022-08-14T02:11:06;11.88;;;9.18;;
64395;SDS011;50717;53.360;6.290;2022-08-14T02:16:29;14.90;;;8.95;;
64395;SDS011;50717;53.360;6.290;2022-08-14T02:19:01;14.05;;;9.25;;
64395;SDS011;50717;53.360;6.290;2022-08-14T02:21:29;10.35;;;9.25;;
64395;SDS011;50717;53.360;6.290;2022-08-14T02:23:59;10.23;;;8.98;;
64395;SDS011;50717;53.360;6.290;2022-08-14T02:26:28;12.50;;;8.98;;
64395;SDS011;50717;53.360;6.290;2022-08-14T02:29:01;10.43;;;8.75;;
64395;SDS011;50717;53.360;6.290;2022-08-14T02:31:34;12.95;;;9.32;;
64395;SDS011;50717;53.360;6.290;2022-08-14T02:34:03;10.75;;;8.98;;
64395;SDS011;50717;53.360;6.290;2022-08-14T02:36:31;10.30;;;9.30;;
64395;SDS011;50717;53.360;6.290;2022-08-14T02:38:56;11.65;;;9.10;;
64395;SDS011;50717;53.360;6.290;2022-08-14T02:41:22;12.02;;;8.70;;
64395;SDS011;50717;53.360;6.290;2022-08-14T02:43:49;11.85;;;10.27;;
64395;SDS011;50717;53.360;6.290;2022-08-14T02:46:15;11.50;;;10.18;;
64395;SDS011;50717;53.360;6.290;2022-08-14T02:48:41;11.60;;;9.60;;
64395;SDS011;50717;53.360;6.290;2022-08-14T02:51:09;11.15;;;9.95;;
64395;SDS011;50717;53.360;6.290;2022-08-14T02:53:45;10.95;;;9.90;;
64395;SDS011;50717;53.360;6.290;2022-08-14T02:56:12;11.35;;;9.95;;
64395;SDS011;50717;53.360;6.290;2022-08-14T02:58:42;11.25;;;10.05;;
64395;SDS011;50717;53.360;6.290;2022-08-14T03:01:11;14.05;;;10.48;;
64395;SDS011;50717;53.360;6.290;2022-08-14T03:03:42;11.18;;;10.07;;
64395;SDS011;50717;53.360;6.290;2022-08-14T03:06:09;11.63;;;10.38;;
64395;SDS011;50717;53.360;6.290;2022-08-14T03:08:36;12.88;;;10.35;;
64395;SDS011;50717;53.360;6.290;2022-08-14T03:11:03;15.35;;;10.00;;
64395;SDS011;50717;53.360;6.290;2022-08-14T03:13:32;12.15;;;10.65;;
64395;SDS011;50717;53.360;6.290;2022-08-14T03:16:00;11.55;;;10.32;;
64395;SDS011;50717;53.360;6.290;2022-08-14T03:18:27;15.15;;;11.13;;
64395;SDS011;50717;53.360;6.290;2022-08-14T03:20:53;14.90;;;10.65;;
64395;SDS011;50717;53.360;6.290;2022-08-14T03:23:19;14.95;;;10.45;;
64395;SDS011;50717;53.360;6.290;2022-08-14T03:25:45;12.60;;;9.93;;
64395;SDS011;50717;53.360;6.290;2022-08-14T03:28:12;12.93;;;9.75;;
64395;SDS011;50717;53.360;6.290;2022-08-14T03:30:38;13.75;;;10.73;;
64395;SDS011;50717;53.360;6.290;2022-08-14T03:33:05;12.60;;;9.85;;
64395;SDS011;50717;53.360;6.290;2022-08-14T03:35:32;14.35;;;10.45;;
64395;SDS011;50717;53.360;6.290;2022-08-14T03:38:07;11.93;;;10.50;;
64395;SDS011;50717;53.360;6.290;2022-08-14T03:40:36;14.98;;;11.05;;
64395;SDS011;50717;53.360;6.290;2022-08-14T03:43:07;11.55;;;10.45;;
64395;SDS011;50717;53.360;6.290;2022-08-14T03:45:34;12.27;;;10.00;;
64395;SDS011;50717;53.360;6.290;2022-08-14T03:48:22;12.05;;;10.43;;
64395;SDS011;50717;53.360;6.290;2022-08-14T03:53:16;11.30;;;9.60;;
64395;SDS011;50717;53.360;6.290;2022-08-14T03:55:43;14.20;;;10.15;;
64395;SDS011;50717;53.360;6.290;2022-08-14T03:58:09;12.13;;;9.90;;
64395;SDS011;50717;53.360;6.290;2022-08-14T04:00:36;13.27;;;10.45;;
64395;SDS011;50717;53.360;6.290;2022-08-14T04:03:04;12.63;;;9.50;;
64395;SDS011;50717;53.360;6.290;2022-08-14T04:05:31;12.98;;;9.85;;
64395;SDS011;50717;53.360;6.290;2022-08-14T04:07:58;11.85;;;10.27;;
64395;SDS011;50717;53.360;6.290;2022-08-14T04:10:24;13.35;;;9.65;;
64395;SDS011;50717;53.360;6.290;2022-08-14T04:12:50;11.30;;;10.05;;
64395;SDS011;50717;53.360;6.290;2022-08-14T04:15:16;11.50;;;10.30;;
64395;SDS011;50717;53.360;6.290;2022-08-14T04:17:44;13.23;;;10.15;;
64395;SDS011;50717;53.360;6.290;2022-08-14T04:20:10;13.60;;;10.60;;
64395;SDS011;50717;53.360;6.290;2022-08-14T04:22:36;11.75;;;10.27;;
64395;SDS011;50717;53.360;6.290;2022-08-14T04:25:06;11.63;;;10.43;;
64395;SDS011;50717;53.360;6.290;2022-08-14T04:27:32;12.35;;;9.90;;
64395;SDS011;50717;53.360;6.290;2022-08-14T04:30:00;12.32;;;10.23;;
64395;SDS011;50717;53.360;6.290;2022-08-14T04:32:26;12.70;;;10.88;;
64395;SDS011;50717;53.360;6.290;2022-08-14T04:34:54;15.20;;;10.43;;
64395;SDS011;50717;53.360;6.290;2022-08-14T04:37:23;17.38;;;10.85;;
64395;SDS011;50717;53.360;6.290;2022-08-14T04:40:10;11.75;;;10.55;;
64395;SDS011;50717;53.360;6.290;2022-08-14T04:42:55;14.02;;;10.52;;
64395;SDS011;50717;53.360;6.290;2022-08-14T04:45:40;11.93;;;10.65;;
64395;SDS011;50717;53.360;6.290;2022-08-14T04:48:07;12.00;;;10.80;;
64395;SDS011;50717;53.360;6.290;2022-08-14T04:50:47;11.90;;;10.45;;
64395;SDS011;50717;53.360;6.290;2022-08-14T04:53:16;14.07;;;10.40;;
64395;SDS011;50717;53.360;6.290;2022-08-14T04:55:46;11.90;;;10.70;;
64395;SDS011;50717;53.360;6.290;2022-08-14T04:58:13;15.05;;;10.77;;
64395;SDS011;50717;53.360;6.290;2022-08-14T05:00:41;14.52;;;10.60;;
64395;SDS011;50717;53.360;6.290;2022-08-14T05:03:08;15.20;;;10.25;;
64395;SDS011;50717;53.360;6.290;2022-08-14T05:05:34;15.20;;;10.68;;
64395;SDS011;50717;53.360;6.290;2022-08-14T05:08:09;19.33;;;11.25;;
64395;SDS011;50717;53.360;6.290;2022-08-14T05:10:42;14.27;;;11.05;;
64395;SDS011;50717;53.360;6.290;2022-08-14T05:13:10;14.27;;;11.38;;
64395;SDS011;50717;53.360;6.290;2022-08-14T05:15:37;13.27;;;10.80;;
64395;SDS011;50717;53.360;6.290;2022-08-14T05:18:08;17.35;;;12.45;;
64395;SDS011;50717;53.360;6.290;2022-08-14T05:20:42;16.33;;;11.40;;
64395;SDS011;50717;53.360;6.290;2022-08-14T05:23:13;13.45;;;11.32;;
64395;SDS011;50717;53.360;6.290;2022-08-14T05:25:40;14.07;;;11.98;;
64395;SDS011;50717;53.360;6.290;2022-08-14T05:28:08;20.00;;;11.68;;
64395;SDS011;50717;53.360;6.290;2022-08-14T05:30:34;13.13;;;11.57;;
64395;SDS011;50717;53.360;6.290;2022-08-14T05:33:00;17.92;;;12.50;;
64395;SDS011;50717;53.360;6.290;2022-08-14T05:35:26;15.13;;;12.85;;
64395;SDS011;50717;53.360;6.290;2022-08-14T05:37:52;15.70;;;12.05;;
64395;SDS011;50717;53.360;6.290;2022-08-14T05:40:18;14.18;;;12.18;;
64395;SDS011;50717;53.360;6.290;2022-08-14T05:42:43;13.80;;;12.32;;
64395;SDS011;50717;53.360;6.290;2022-08-14T05:45:09;13.35;;;12.00;;
64395;SDS011;50717;53.360;6.290;2022-08-14T05:47:38;14.82;;;12.82;;
64395;SDS011;50717;53.360;6.290;2022-08-14T05:50:09;18.27;;;12.80;;
64395;SDS011;50717;53.360;6.290;2022-08-14T05:52:36;13.48;;;12.18;;
64395;SDS011;50717;53.360;6.290;2022-08-14T05:55:03;15.43;;;12.05;;
64395;SDS011;50717;53.360;6.290;2022-08-14T05:57:29;12.70;;;11.38;;
64395;SDS011;50717;53.360;6.290;2022-08-14T05:59:55;16.63;;;12.10;;
64395;SDS011;50717;53.360;6.290;2022-08-14T06:02:20;14.52;;;11.70;;
64395;SDS011;50717;53.360;6.290;2022-08-14T06:04:46;13.82;;;11.55;;
64395;SDS011;50717;53.360;6.290;2022-08-14T06:07:15;13.90;;;11.40;;
64395;SDS011;50717;53.360;6.290;2022-08-14T06:09:41;13.82;;;11.25;;
64395;SDS011;50717;53.360;6.290;2022-08-14T06:12:07;13.50;;;10.80;;
64395;SDS011;50717;53.360;6.290;2022-08-14T06:14:33;14.20;;;10.80;;
64395;SDS011;50717;53.360;6.290;2022-08-14T06:17:00;13.00;;;11.60;;
64395;SDS011;50717;53.360;6.290;2022-08-14T06:19:25;13.02;;;11.00;;
64395;SDS011;50717;53.360;6.290;2022-08-14T06:21:51;14.18;;;11.20;;
64395;SDS011;50717;53.360;6.290;2022-08-14T06:24:17;14.52;;;11.95;;
64395;SDS011;50717;53.360;6.290;2022-08-14T06:26:44;13.23;;;11.52;;
64395;SDS011;50717;53.360;6.290;2022-08-14T06:29:11;15.90;;;11.27;;
64395;SDS011;50717;53.360;6.290;2022-08-14T06:31:36;14.55;;;11.70;;
64395;SDS011;50717;53.360;6.290;2022-08-14T06:34:02;12.90;;;11.60;;
64395;SDS011;50717;53.360;6.290;2022-08-14T06:36:28;12.77;;;10.65;;
64395;SDS011;50717;53.360;6.290;2022-08-14T06:38:54;12.40;;;10.65;;
64395;SDS011;50717;53.360;6.290;2022-08-14T06:41:20;13.77;;;11.02;;
64395;SDS011;50717;53.360;6.290;2022-08-14T06:43:47;12.70;;;10.55;;
64395;SDS011;50717;53.360;6.290;2022-08-14T06:46:13;12.13;;;10.90;;
64395;SDS011;50717;53.360;6.290;2022-08-14T06:48:39;15.23;;;10.70;;
64395;SDS011;50717;53.360;6.290;2022-08-14T06:51:05;12.40;;;11.20;;
64395;SDS011;50717;53.360;6.290;2022-08-14T06:53:30;12.38;;;10.80;;
64395;SDS011;50717;53.360;6.290;2022-08-14T06:55:56;14.75;;;10.38;;
64395;SDS011;50717;53.360;6.290;2022-08-14T06:58:22;11.40;;;9.98;;
64395;SDS011;50717;53.360;6.290;2022-08-14T07:00:48;14.43;;;10.57;;
64395;SDS011;50717;53.360;6.290;2022-08-14T07:03:32;11.77;;;10.13;;
64395;SDS011;50717;53.360;6.290;2022-08-14T07:06:17;14.38;;;10.50;;
64395;SDS011;50717;53.360;6.290;2022-08-14T07:08:44;12.10;;;9.00;;
64395;SDS011;50717;53.360;6.290;2022-08-14T07:11:09;12.90;;;10.00;;
64395;SDS011;50717;53.360;6.290;2022-08-14T07:13:36;12.02;;;9.68;;
64395;SDS011;50717;53.360;6.290;2022-08-14T07:16:03;12.10;;;9.63;;
64395;SDS011;50717;53.360;6.290;2022-08-14T07:18:30;12.85;;;9.80;;
64395;SDS011;50717;53.360;6.290;2022-08-14T07:20:57;14.30;;;9.68;;
64395;SDS011;50717;53.360;6.290;2022-08-14T07:23:24;13.50;;;9.13;;
64395;SDS011;50717;53.360;6.290;2022-08-14T07:25:51;11.55;;;9.20;;
64395;SDS011;50717;53.360;6.290;2022-08-14T07:28:19;13.00;;;9.00;;
64395;SDS011;50717;53.360;6.290;2022-08-14T07:30:48;10.20;;;9.25;;
64395;SDS011;50717;53.360;6.290;2022-08-14T07:33:15;9.35;;;8.40;;
64395;SDS011;50717;53.360;6.290;2022-08-14T07:35:41;12.77;;;9.43;;
64395;SDS011;50717;53.360;6.290;2022-08-14T07:38:07;10.25;;;8.45;;
64395;SDS011;50717;53.360;6.290;2022-08-14T07:40:33;10.55;;;8.38;;
64395;SDS011;50717;53.360;6.290;2022-08-14T07:42:59;12.18;;;8.75;;
64395;SDS011;50717;53.360;6.290;2022-08-14T07:45:26;10.13;;;9.07;;
64395;SDS011;50717;53.360;6.290;2022-08-14T07:47:52;8.75;;;7.82;;
64395;SDS011;50717;53.360;6.290;2022-08-14T07:50:20;10.73;;;8.95;;
64395;SDS011;50717;53.360;6.290;2022-08-14T07:52:46;12.20;;;8.95;;
64395;SDS011;50717;53.360;6.290;2022-08-14T07:55:14;9.43;;;8.43;;
64395;SDS011;50717;53.360;6.290;2022-08-14T07:57:42;12.52;;;8.55;;
64395;SDS011;50717;53.360;6.290;2022-08-14T08:00:13;13.55;;;8.35;;
64395;SDS011;50717;53.360;6.290;2022-08-14T08:02:41;12.60;;;8.25;;
64395;SDS011;50717;53.360;6.290;2022-08-14T08:05:09;12.18;;;8.65;;
64395;SDS011;50717;53.360;6.290;2022-08-14T08:07:36;10.20;;;8.10;;
64395;SDS011;50717;53.360;6.290;2022-08-14T08:10:05;9.32;;;8.10;;
64395;SDS011;50717;53.360;6.290;2022-08-14T08:12:55;10.48;;;7.97;;
64395;SDS011;50717;53.360;6.290;2022-08-14T08:15:22;9.20;;;7.40;;
64395;SDS011;50717;53.360;6.290;2022-08-14T08:17:52;10.73;;;7.90;;
64395;SDS011;50717;53.360;6.290;2022-08-14T08:20:19;11.02;;;6.80;;
64395;SDS011;50717;53.360;6.290;2022-08-14T08:22:51;9.63;;;7.00;;
64395;SDS011;50717;53.360;6.290;2022-08-14T08:25:20;15.52;;;7.90;;
64395;SDS011;50717;53.360;6.290;2022-08-14T08:27:57;7.20;;;6.50;;
64395;SDS011;50717;53.360;6.290;2022-08-14T08:30:25;7.85;;;7.05;;
64395;SDS011;50717;53.360;6.290;2022-08-14T08:32:53;10.60;;;7.13;;
64395;SDS011;50717;53.360;6.290;2022-08-14T08:35:23;8.73;;;7.28;;
64395;SDS011;50717;53.360;6.290;2022-08-14T08:37:51;10.38;;;7.00;;
64395;SDS011;50717;53.360;6.290;2022-08-14T08:40:28;7.90;;;7.13;;
64395;SDS011;50717;53.360;6.290;2022-08-14T08:43:17;9.32;;;6.72;;
64395;SDS011;50717;53.360;6.290;2022-08-14T08:45:55;8.88;;;6.53;;
64395;SDS011;50717;53.360;6.290;2022-08-14T08:48:26;9.85;;;6.43;;
64395;SDS011;50717;53.360;6.290;2022-08-14T08:50:54;8.38;;;6.43;;
64395;SDS011;50717;53.360;6.290;2022-08-14T08:53:31;9.30;;;6.80;;
64395;SDS011;50717;53.360;6.290;2022-08-14T08:55:58;7.45;;;6.32;;
64395;SDS011;50717;53.360;6.290;2022-08-14T08:58:24;7.80;;;6.20;;
64395;SDS011;50717;53.360;6.290;2022-08-14T09:00:52;9.20;;;6.30;;
64395;SDS011;50717;53.360;6.290;2022-08-14T09:03:21;7.82;;;6.10;;
64395;SDS011;50717;53.360;6.290;2022-08-14T09:05:52;8.43;;;6.03;;
64395;SDS011;50717;53.360;6.290;2022-08-14T09:08:23;10.02;;;6.28;;
64395;SDS011;50717;53.360;6.290;2022-08-14T09:10:50;7.43;;;6.72;;
64395;SDS011;50717;53.360;6.290;2022-08-14T09:13:18;6.85;;;5.80;;
64395;SDS011;50717;53.360;6.290;2022-08-14T09:15:45;7.50;;;6.07;;
64395;SDS011;50717;53.360;6.290;2022-08-14T09:18:13;9.70;;;6.30;;
64395;SDS011;50717;53.360;6.290;2022-08-14T09:20:41;10.52;;;6.28;;
64395;SDS011;50717;53.360;6.290;2022-08-14T09:23:10;8.05;;;5.97;;
64395;SDS011;50717;53.360;6.290;2022-08-14T09:25:37;8.40;;;5.88;;
64395;SDS011;50717;53.360;6.290;2022-08-14T09:28:05;9.40;;;5.80;;
64395;SDS011;50717;53.360;6.290;2022-08-14T09:30:33;6.65;;;6.00;;
64395;SDS011;50717;53.360;6.290;2022-08-14T09:45:47;6.13;;;5.50;;
64395;SDS011;50717;53.360;6.290;2022-08-14T09:48:18;8.63;;;4.97;;
64395;SDS011;50717;53.360;6.290;2022-08-14T09:50:48;7.10;;;5.70;;
64395;SDS011;50717;53.360;6.290;2022-08-14T09:53:16;7.18;;;5.25;;
64395;SDS011;50717;53.360;6.290;2022-08-14T09:56:02;8.00;;;4.93;;
64395;SDS011;50717;53.360;6.290;2022-08-14T09:58:41;7.75;;;5.82;;
64395;SDS011;50717;53.360;6.290;2022-08-14T10:03:46;6.03;;;5.38;;
64395;SDS011;50717;53.360;6.290;2022-08-14T10:06:47;8.93;;;5.57;;
64395;SDS011;50717;53.360;6.290;2022-08-14T10:09:09;5.63;;;5.10;;
64395;SDS011;50717;53.360;6.290;2022-08-14T10:11:36;7.80;;;5.30;;
64395;SDS011;50717;53.360;6.290;2022-08-14T10:14:21;5.72;;;5.03;;
64395;SDS011;50717;53.360;6.290;2022-08-14T10:19:17;5.97;;;5.47;;
64395;SDS011;50717;53.360;6.290;2022-08-14T10:21:44;5.63;;;5.13;;
64395;SDS011;50717;53.360;6.290;2022-08-14T10:24:28;7.57;;;5.25;;
64395;SDS011;50717;53.360;6.290;2022-08-14T10:26:55;5.40;;;4.70;;
64395;SDS011;50717;53.360;6.290;2022-08-14T10:29:32;5.82;;;4.75;;
64395;SDS011;50717;53.360;6.290;2022-08-14T10:31:59;5.30;;;4.80;;
64395;SDS011;50717;53.360;6.290;2022-08-14T10:34:31;6.80;;;4.85;;
64395;SDS011;50717;53.360;6.290;2022-08-14T10:37:06;7.53;;;5.47;;
64395;SDS011;50717;53.360;6.290;2022-08-14T10:39:37;5.30;;;4.80;;
64395;SDS011;50717;53.360;6.290;2022-08-14T10:42:07;5.60;;;5.00;;
64395;SDS011;50717;53.360;6.290;2022-08-14T10:44:45;6.18;;;5.20;;
64395;SDS011;50717;53.360;6.290;2022-08-14T10:47:13;5.95;;;5.35;;
64395;SDS011;50717;53.360;6.290;2022-08-14T10:49:43;6.07;;;4.95;;
64395;SDS011;50717;53.360;6.290;2022-08-14T10:52:25;9.95;;;4.63;;
64395;SDS011;50717;53.360;6.290;2022-08-14T10:55:04;8.55;;;5.07;;
64395;SDS011;50717;53.360;6.290;2022-08-14T10:57:48;5.82;;;5.20;;
64395;SDS011;50717;53.360;6.290;2022-08-14T11:00:16;6.90;;;5.00;;
64395;SDS011;50717;53.360;6.290;2022-08-14T11:02:43;6.55;;;4.95;;
64395;SDS011;50717;53.360;6.290;2022-08-14T11:05:10;5.43;;;4.90;;
64395;SDS011;50717;53.360;6.290;2022-08-14T11:07:53;6.47;;;5.28;;
64395;SDS011;50717;53.360;6.290;2022-08-14T11:10:20;7.25;;;5.65;;
64395;SDS011;50717;53.360;6.290;2022-08-14T11:12:53;5.90;;;5.30;;
64395;SDS011;50717;53.360;6.290;2022-08-14T11:15:24;5.90;;;5.40;;
64395;SDS011;50717;53.360;6.290;2022-08-14T11:17:51;6.15;;;5.55;;
64395;SDS011;50717;53.360;6.290;2022-08-14T11:20:27;9.23;;;5.50;;
64395;SDS011;50717;53.360;6.290;2022-08-14T11:22:54;7.60;;;5.25;;
64395;SDS011;50717;53.360;6.290;2022-08-14T11:25:23;9.77;;;5.40;;
64395;SDS011;50717;53.360;6.290;2022-08-14T11:27:53;6.80;;;5.88;;
64395;SDS011;50717;53.360;6.290;2022-08-14T11:30:21;5.32;;;4.70;;
64395;SDS011;50717;53.360;6.290;2022-08-14T11:32:52;8.00;;;4.82;;
64395;SDS011;50717;53.360;6.290;2022-08-14T11:35:21;6.88;;;4.80;;
64395;SDS011;50717;53.360;6.290;2022-08-14T11:37:51;5.47;;;4.95;;
64395;SDS011;50717;53.360;6.290;2022-08-14T11:40:19;6.13;;;4.70;;
64395;SDS011;50717;53.360;6.290;2022-08-14T11:42:47;7.75;;;4.68;;
64395;SDS011;50717;53.360;6.290;2022-08-14T11:45:14;5.13;;;4.70;;
64395;SDS011;50717;53.360;6.290;2022-08-14T11:47:41;5.95;;;5.07;;
64395;SDS011;50717;53.360;6.290;2022-08-14T11:50:10;6.00;;;4.75;;
64395;SDS011;50717;53.360;6.290;2022-08-14T11:52:42;5.38;;;4.70;;
64395;SDS011;50717;53.360;6.290;2022-08-14T11:55:09;6.35;;;4.40;;
64395;SDS011;50717;53.360;6.290;2022-08-14T11:57:43;5.70;;;4.97;;
64395;SDS011;50717;53.360;6.290;2022-08-14T12:00:15;6.07;;;4.97;;
64395;SDS011;50717;53.360;6.290;2022-08-14T12:02:51;5.35;;;4.60;;
64395;SDS011;50717;53.360;6.290;2022-08-14T12:05:31;6.55;;;4.63;;
64395;SDS011;50717;53.360;6.290;2022-08-14T12:07:58;6.13;;;5.10;;
64395;SDS011;50717;53.360;6.290;2022-08-14T12:10:24;7.10;;;5.10;;
64395;SDS011;50717;53.360;6.290;2022-08-14T12:12:50;5.60;;;4.80;;
64395;SDS011;50717;53.360;6.290;2022-08-14T12:15:33;5.93;;;4.90;;
64395;SDS011;50717;53.360;6.290;2022-08-14T12:18:00;9.48;;;5.05;;
64395;SDS011;50717;53.360;6.290;2022-08-14T12:20:29;8.15;;;4.60;;
64395;SDS011;50717;53.360;6.290;2022-08-14T12:22:58;7.00;;;5.13;;
64395;SDS011;50717;53.360;6.290;2022-08-14T12:25:29;7.18;;;4.68;;
64395;SDS011;50717;53.360;6.290;2022-08-14T12:27:56;7.38;;;4.50;;
64395;SDS011;50717;53.360;6.290;2022-08-14T12:30:26;7.68;;;4.85;;
64395;SDS011;50717;53.360;6.290;2022-08-14T12:32:59;5.17;;;4.73;;
64395;SDS011;50717;53.360;6.290;2022-08-14T12:35:34;8.35;;;4.80;;
64395;SDS011;50717;53.360;6.290;2022-08-14T12:38:10;4.93;;;4.45;;
64395;SDS011;50717;53.360;6.290;2022-08-14T12:43:13;5.15;;;4.53;;
64395;SDS011;50717;53.360;6.290;2022-08-14T12:45:44;5.63;;;5.00;;
64395;SDS011;50717;53.360;6.290;2022-08-14T12:48:19;6.60;;;4.85;;
64395;SDS011;50717;53.360;6.290;2022-08-14T12:50:47;6.90;;;4.40;;
64395;SDS011;50717;53.360;6.290;2022-08-14T12:53:17;5.90;;;5.30;;
64395;SDS011;50717;53.360;6.290;2022-08-14T12:55:44;5.95;;;4.72;;
64395;SDS011;50717;53.360;6.290;2022-08-14T12:58:21;6.25;;;5.30;;
64395;SDS011;50717;53.360;6.290;2022-08-14T13:00:52;4.97;;;4.53;;
64395;SDS011;50717;53.360;6.290;2022-08-14T13:03:27;5.00;;;4.50;;
64395;SDS011;50717;53.360;6.290;2022-08-14T13:05:54;5.75;;;4.88;;
64395;SDS011;50717;53.360;6.290;2022-08-14T13:08:20;6.65;;;4.57;;
64395;SDS011;50717;53.360;6.290;2022-08-14T13:10:47;5.97;;;4.88;;
64395;SDS011;50717;53.360;6.290;2022-08-14T13:13:14;5.07;;;4.63;;
64395;SDS011;50717;53.360;6.290;2022-08-14T13:15:44;8.07;;;5.20;;
64395;SDS011;50717;53.360;6.290;2022-08-14T13:18:14;7.53;;;5.00;;
64395;SDS011;50717;53.360;6.290;2022-08-14T13:20:40;4.93;;;4.50;;
64395;SDS011;50717;53.360;6.290;2022-08-14T13:23:08;6.38;;;4.75;;
64395;SDS011;50717;53.360;6.290;2022-08-14T13:25:34;5.53;;;4.85;;
64395;SDS011;50717;53.360;6.290;2022-08-14T13:28:02;5.45;;;4.47;;
64395;SDS011;50717;53.360;6.290;2022-08-14T13:30:30;7.28;;;4.85;;
64395;SDS011;50717;53.360;6.290;2022-08-14T13:32:56;6.93;;;5.00;;
64395;SDS011;50717;53.360;6.290;2022-08-14T13:35:22;6.93;;;4.82;;
64395;SDS011;50717;53.360;6.290;2022-08-14T13:37:49;5.97;;;4.50;;
64395;SDS011;50717;53.360;6.290;2022-08-14T13:40:18;4.80;;;4.40;;
64395;SDS011;50717;53.360;6.290;2022-08-14T13:42:47;4.93;;;4.45;;
64395;SDS011;50717;53.360;6.290;2022-08-14T13:45:16;5.57;;;4.47;;
64395;SDS011;50717;53.360;6.290;2022-08-14T13:47:43;8.82;;;4.53;;
64395;SDS011;50717;53.360;6.290;2022-08-14T13:50:09;6.90;;;4.22;;
64395;SDS011;50717;53.360;6.290;2022-08-14T13:52:39;5.85;;;4.28;;
64395;SDS011;50717;53.360;6.290;2022-08-14T13:55:06;4.57;;;4.18;;
64395;SDS011;50717;53.360;6.290;2022-08-14T13:57:33;9.23;;;5.18;;
64395;SDS011;50717;53.360;6.290;2022-08-14T14:00:04;5.68;;;4.57;;
64395;SDS011;50717;53.360;6.290;2022-08-14T14:02:39;5.28;;;4.70;;
64395;SDS011;50717;53.360;6.290;2022-08-14T14:05:08;5.03;;;4.50;;
64395;SDS011;50717;53.360;6.290;2022-08-14T14:07:37;4.47;;;4.07;;
64395;SDS011;50717;53.360;6.290;2022-08-14T14:10:10;5.38;;;4.57;;
64395;SDS011;50717;53.360;6.290;2022-08-14T14:12:37;6.15;;;4.43;;
64395;SDS011;50717;53.360;6.290;2022-08-14T14:15:07;7.05;;;5.07;;
64395;SDS011;50717;53.360;6.290;2022-08-14T14:17:40;4.60;;;4.20;;
64395;SDS011;50717;53.360;6.290;2022-08-14T14:20:08;5.70;;;4.28;;
64395;SDS011;50717;53.360;6.290;2022-08-14T14:22:39;7.10;;;4.47;;
64395;SDS011;50717;53.360;6.290;2022-08-14T14:25:09;7.18;;;4.70;;
64395;SDS011;50717;53.360;6.290;2022-08-14T14:27:37;6.97;;;4.75;;
64395;SDS011;50717;53.360;6.290;2022-08-14T14:30:06;6.05;;;4.65;;
64395;SDS011;50717;53.360;6.290;2022-08-14T14:32:33;7.50;;;4.43;;
64395;SDS011;50717;53.360;6.290;2022-08-14T14:35:05;5.88;;;4.30;;
64395;SDS011;50717;53.360;6.290;2022-08-14T14:37:35;5.78;;;4.72;;
64395;SDS011;50717;53.360;6.290;2022-08-14T14:40:04;5.28;;;4.78;;
64395;SDS011;50717;53.360;6.290;2022-08-14T14:42:30;5.47;;;4.80;;
64395;SDS011;50717;53.360;6.290;2022-08-14T14:45:31;5.82;;;4.68;;
64395;SDS011;50717;53.360;6.290;2022-08-14T14:47:51;5.30;;;4.60;;
64395;SDS011;50717;53.360;6.290;2022-08-14T14:50:19;6.47;;;4.55;;
64395;SDS011;50717;53.360;6.290;2022-08-14T14:52:46;6.13;;;4.80;;
64395;SDS011;50717;53.360;6.290;2022-08-14T14:55:13;5.60;;;4.70;;
64395;SDS011;50717;53.360;6.290;2022-08-14T14:57:40;5.78;;;4.78;;
64395;SDS011;50717;53.360;6.290;2022-08-14T15:00:09;6.43;;;4.70;;
64395;SDS011;50717;53.360;6.290;2022-08-14T15:02:38;8.13;;;4.88;;
64395;SDS011;50717;53.360;6.290;2022-08-14T15:05:06;7.03;;;4.68;;
64395;SDS011;50717;53.360;6.290;2022-08-14T15:07:33;6.03;;;4.40;;
64395;SDS011;50717;53.360;6.290;2022-08-14T15:09:59;6.60;;;4.80;;
64395;SDS011;50717;53.360;6.290;2022-08-14T15:12:25;6.38;;;4.47;;
64395;SDS011;50717;53.360;6.290;2022-08-14T15:14:51;4.80;;;4.40;;
64395;SDS011;50717;53.360;6.290;2022-08-14T15:17:16;6.18;;;4.25;;
64395;SDS011;50717;53.360;6.290;2022-08-14T15:19:43;8.07;;;4.10;;